sensor_id;sensor_type;location;lat;lon;timestamp;pressure;altitude;pressure_sealevel;temperature;humidity
22605;BME280;11469;49.024;8.246;2022-12-08T00:01:09;100161.22;;;0.62;100.00
22605;BME280;11469;49.024;8.246;2022-12-08T00:03:36;100162.34;;;0.61;100.00
22605;BME280;11469;49.024;8.246;2022-12-08T00:06:03;100160.56;;;0.70;100.00
22605;BME280;11469;49.024;8.246;2022-12-08T00:08:47;100154.94;;;0.75;100.00
22605;BME280;11469;49.024;8.246;2022-12-08T00:11:31;100150.75;;;0.78;100.00
22605;BME280;11469;49.024;8.246;2022-12-08T00:13:57;100143.31;;;0.78;100.00
22605;BME280;11469;49.024;8.246;2022-12-08T00:16:23;100145.16;;;0.83;100.00
22605;BME280;11469;49.024;8.246;2022-12-08T00:18:49;100136.28;;;0.86;100.00
22605;BME280;11469;49.024;8.246;2022-12-08T00:21:14;100144.16;;;0.92;100.00
22605;BME280;11469;49.024;8.246;2022-12-08T00:23:39;100133.00;;;0.97;100.00
22605;BME280;11469;49.024;8.246;2022-12-08T00:26:05;100129.84;;;1.04;100.00
22605;BME280;11469;49.024;8.246;2022-12-08T00:28:32;100120.44;;;1.05;100.00
22605;BME280;11469;49.024;8.246;2022-12-08T00:30:58;100129.75;;;1.09;100.00
22605;BME280;11469;49.024;8.246;2022-12-08T00:33:27;100111.75;;;1.12;100.00
22605;BME280;11469;49.024;8.246;2022-12-08T00:35:52;100115.53;;;1.16;100.00
22605;BME280;11469;49.024;8.246;2022-12-08T00:38:18;100103.19;;;1.13;100.00
22605;BME280;11469;49.024;8.246;2022-12-08T00:40:47;100106.44;;;1.15;100.00
22605;BME280;11469;49.024;8.246;2022-12-08T00:43:13;100110.34;;;1.14;100.00
22605;BME280;11469;49.024;8.246;2022-12-08T00:45:38;100108.69;;;1.13;100.00
22605;BME280;11469;49.024;8.246;2022-12-08T00:48:04;100105.13;;;1.13;100.00
22605;BME280;11469;49.024;8.246;2022-12-08T00:50:29;100103.28;;;1.08;100.00
22605;BME280;11469;49.024;8.246;2022-12-08T00:52:55;100098.56;;;1.09;100.00
22605;BME280;11469;49.024;8.246;2022-12-08T00:55:20;100095.81;;;1.09;100.00
22605;BME280;11469;49.024;8.246;2022-12-08T00:57:45;100092.75;;;1.10;100.00
22605;BME280;11469;49.024;8.246;2022-12-08T01:00:11;100088.84;;;1.11;100.00
22605;BME280;11469;49.024;8.246;2022-12-08T01:02:36;100083.75;;;1.05;100.00
22605;BME280;11469;49.024;8.246;2022-12-08T01:05:02;100086.50;;;1.05;100.00
22605;BME280;11469;49.024;8.246;2022-12-08T01:07:27;100082.09;;;1.04;100.00
22605;BME280;11469;49.024;8.246;2022-12-08T01:09:53;100085.19;;;1.02;100.00
22605;BME280;11469;49.024;8.246;2022-12-08T01:12:18;100087.41;;;1.00;100.00
22605;BME280;11469;49.024;8.246;2022-12-08T01:14:43;100084.56;;;0.91;100.00
22605;BME280;11469;49.024;8.246;2022-12-08T01:17:09;100081.81;;;0.91;100.00
22605;BME280;11469;49.024;8.246;2022-12-08T01:19:34;100084.06;;;0.89;100.00
22605;BME280;11469;49.024;8.246;2022-12-08T01:22:01;100083.56;;;0.87;100.00
22605;BME280;11469;49.024;8.246;2022-12-08T01:24:26;100088.56;;;0.85;100.00
22605;BME280;11469;49.024;8.246;2022-12-08T01:26:51;100084.97;;;0.85;100.00
22605;BME280;11469;49.024;8.246;2022-12-08T01:29:17;100085.78;;;0.85;100.00
22605;BME280;11469;49.024;8.246;2022-12-08T01:31:42;100085.78;;;0.85;100.00
22605;BME280;11469;49.024;8.246;2022-12-08T01:34:09;100091.91;;;0.82;100.00
22605;BME280;11469;49.024;8.246;2022-12-08T01:36:35;100087.81;;;0.80;100.00
22605;BME280;11469;49.024;8.246;2022-12-08T01:39:06;100092.22;;;0.81;100.00
22605;BME280;11469;49.024;8.246;2022-12-08T01:41:33;100085.06;;;0.80;100.00
22605;BME280;11469;49.024;8.246;2022-12-08T01:46:33;100080.88;;;0.82;100.00
22605;BME280;11469;49.024;8.246;2022-12-08T01:49:11;100082.22;;;0.85;100.00
22605;BME280;11469;49.024;8.246;2022-12-08T01:51:46;100081.91;;;0.86;100.00
22605;BME280;11469;49.024;8.246;2022-12-08T01:54:13;100091.72;;;0.92;100.00
22605;BME280;11469;49.024;8.246;2022-12-08T01:57:03;100080.25;;;0.99;100.00
22605;BME280;11469;49.024;8.246;2022-12-08T01:59:25;100083.03;;;0.99;100.00
22605;BME280;11469;49.024;8.246;2022-12-08T02:01:51;100081.91;;;1.00;100.00
22605;BME280;11469;49.024;8.246;2022-12-08T02:04:16;100077.19;;;1.00;100.00
22605;BME280;11469;49.024;8.246;2022-12-08T02:06:44;100069.34;;;1.08;100.00
22605;BME280;11469;49.024;8.246;2022-12-08T02:09:11;100059.22;;;1.03;100.00
22605;BME280;11469;49.024;8.246;2022-12-08T02:11:36;100074.13;;;1.02;100.00
22605;BME280;11469;49.024;8.246;2022-12-08T02:14:03;100064.72;;;1.03;100.00
22605;BME280;11469;49.024;8.246;2022-12-08T02:20:04;100055.72;;;0.97;100.00
22605;BME280;11469;49.024;8.246;2022-12-08T02:22:49;100065.13;;;0.96;100.00
22605;BME280;11469;49.024;8.246;2022-12-08T02:25:39;100055.56;;;0.94;100.00
22605;BME280;11469;49.024;8.246;2022-12-08T02:28:37;100058.94;;;0.91;100.00
22605;BME280;11469;49.024;8.246;2022-12-08T02:31:31;100058.41;;;0.89;100.00
22605;BME280;11469;49.024;8.246;2022-12-08T02:34:22;100052.38;;;0.87;100.00
22605;BME280;11469;49.024;8.246;2022-12-08T02:36:58;100055.25;;;0.82;100.00
22605;BME280;11469;49.024;8.246;2022-12-08T02:39:50;100059.31;;;0.84;100.00
22605;BME280;11469;49.024;8.246;2022-12-08T02:42:31;100059.13;;;0.81;100.00
22605;BME280;11469;49.024;8.246;2022-12-08T02:45:03;100044.28;;;0.77;100.00
22605;BME280;11469;49.024;8.246;2022-12-08T02:47:33;100048.28;;;0.71;100.00
22605;BME280;11469;49.024;8.246;2022-12-08T02:49:59;100033.75;;;0.65;100.00
22605;BME280;11469;49.024;8.246;2022-12-08T02:54:52;100031.09;;;0.60;100.00
22605;BME280;11469;49.024;8.246;2022-12-08T03:05:46;100020.44;;;0.53;100.00
22605;BME280;11469;49.024;8.246;2022-12-08T03:11:16;100013.31;;;0.52;100.00
22605;BME280;11469;49.024;8.246;2022-12-08T03:13:57;100009.22;;;0.50;100.00
22605;BME280;11469;49.024;8.246;2022-12-08T03:16:25;100007.78;;;0.52;100.00
22605;BME280;11469;49.024;8.246;2022-12-08T03:18:56;100010.84;;;0.51;100.00
22605;BME280;11469;49.024;8.246;2022-12-08T03:21:25;100016.19;;;0.47;100.00
22605;BME280;11469;49.024;8.246;2022-12-08T03:23:53;100008.22;;;0.46;100.00
22605;BME280;11469;49.024;8.246;2022-12-08T03:26:26;100009.03;;;0.46;100.00
22605;BME280;11469;49.024;8.246;2022-12-08T03:28:53;100005.94;;;0.48;100.00
22605;BME280;11469;49.024;8.246;2022-12-08T03:31:20;100003.00;;;0.44;100.00
22605;BME280;11469;49.024;8.246;2022-12-08T03:33:51;100000.34;;;0.39;100.00
22605;BME280;11469;49.024;8.246;2022-12-08T03:36:19;100001.16;;;0.40;100.00
22605;BME280;11469;49.024;8.246;2022-12-08T03:38:45;99988.78;;;0.37;100.00
22605;BME280;11469;49.024;8.246;2022-12-08T03:41:14;99991.84;;;0.36;100.00
22605;BME280;11469;49.024;8.246;2022-12-08T03:43:43;99996.84;;;0.33;100.00
22605;BME280;11469;49.024;8.246;2022-12-08T03:46:08;99983.69;;;0.30;100.00
22605;BME280;11469;49.024;8.246;2022-12-08T03:48:33;99988.59;;;0.33;100.00
22605;BME280;11469;49.024;8.246;2022-12-08T03:50:59;99981.72;;;0.31;100.00
22605;BME280;11469;49.024;8.246;2022-12-08T03:53:24;99987.56;;;0.29;100.00
22605;BME280;11469;49.024;8.246;2022-12-08T03:55:52;99982.03;;;0.29;100.00
22605;BME280;11469;49.024;8.246;2022-12-08T03:58:17;99982.03;;;0.29;100.00
22605;BME280;11469;49.024;8.246;2022-12-08T04:00:43;99974.59;;;0.30;100.00
22605;BME280;11469;49.024;8.246;2022-12-08T04:03:09;99973.25;;;0.27;100.00
22605;BME280;11469;49.024;8.246;2022-12-08T04:05:34;99966.63;;;0.28;100.00
22605;BME280;11469;49.024;8.246;2022-12-08T04:07:59;99963.25;;;0.31;100.00
22605;BME280;11469;49.024;8.246;2022-12-08T04:10:25;99951.72;;;0.29;100.00
22605;BME280;11469;49.024;8.246;2022-12-08T04:12:50;99955.59;;;0.28;100.00
22605;BME280;11469;49.024;8.246;2022-12-08T04:15:16;99964.69;;;0.29;100.00
22605;BME280;11469;49.024;8.246;2022-12-08T04:17:41;99955.59;;;0.28;100.00
22605;BME280;11469;49.024;8.246;2022-12-08T04:20:07;99959.47;;;0.27;100.00
22605;BME280;11469;49.024;8.246;2022-12-08T04:22:32;99962.75;;;0.29;100.00
22605;BME280;11469;49.024;8.246;2022-12-08T04:24:57;99954.16;;;0.31;100.00
22605;BME280;11469;49.024;8.246;2022-12-08T04:27:23;99951.41;;;0.31;100.00
22605;BME280;11469;49.024;8.246;2022-12-08T04:29:48;99949.16;;;0.33;100.00
22605;BME280;11469;49.024;8.246;2022-12-08T04:32:13;99957.13;;;0.35;100.00
22605;BME280;11469;49.024;8.246;2022-12-08T04:34:39;99950.81;;;0.34;100.00
22605;BME280;11469;49.024;8.246;2022-12-08T04:37:04;99949.16;;;0.33;100.00
22605;BME280;11469;49.024;8.246;2022-12-08T04:39:30;99946.72;;;0.31;100.00
22605;BME280;11469;49.024;8.246;2022-12-08T04:41:55;99951.41;;;0.31;100.00
22605;BME280;11469;49.024;8.246;2022-12-08T04:44:20;99948.88;;;0.35;100.00
22605;BME280;11469;49.024;8.246;2022-12-08T04:46:46;99955.50;;;0.33;100.00
22605;BME280;11469;49.024;8.246;2022-12-08T04:49:11;99944.69;;;0.37;100.00
22605;BME280;11469;49.024;8.246;2022-12-08T04:51:36;99942.94;;;0.41;100.00
22605;BME280;11469;49.024;8.246;2022-12-08T04:54:02;99941.84;;;0.42;100.00
22605;BME280;11469;49.024;8.246;2022-12-08T04:56:27;99942.44;;;0.39;100.00
22605;BME280;11469;49.024;8.246;2022-12-08T04:58:53;99942.44;;;0.39;100.00
22605;BME280;11469;49.024;8.246;2022-12-08T05:01:18;99936.53;;;0.46;100.00
22605;BME280;11469;49.024;8.246;2022-12-08T05:03:43;99939.97;;;0.51;100.00
22605;BME280;11469;49.024;8.246;2022-12-08T05:06:11;99934.97;;;0.53;100.00
22605;BME280;11469;49.024;8.246;2022-12-08T05:08:37;99932.72;;;0.55;100.00
22605;BME280;11469;49.024;8.246;2022-12-08T05:11:05;99939.06;;;0.56;100.00
22605;BME280;11469;49.024;8.246;2022-12-08T05:13:30;99941.50;;;0.57;100.00
22605;BME280;11469;49.024;8.246;2022-12-08T05:16:11;99943.44;;;0.57;100.00
22605;BME280;11469;49.024;8.246;2022-12-08T05:18:37;99950.91;;;0.56;100.00
22605;BME280;11469;49.024;8.246;2022-12-08T05:21:04;99944.25;;;0.57;100.00
22605;BME280;11469;49.024;8.246;2022-12-08T05:23:30;99945.91;;;0.58;100.00
22605;BME280;11469;49.024;8.246;2022-12-08T05:25:55;99934.75;;;0.63;100.00
22605;BME280;11469;49.024;8.246;2022-12-08T05:28:21;99937.53;;;0.63;100.00
22605;BME280;11469;49.024;8.246;2022-12-08T05:30:47;99932.81;;;0.64;100.00
22605;BME280;11469;49.024;8.246;2022-12-08T05:33:12;99936.09;;;0.66;100.00
22605;BME280;11469;49.024;8.246;2022-12-08T05:35:38;99934.47;;;0.65;100.00
22605;BME280;11469;49.024;8.246;2022-12-08T05:38:04;99928.13;;;0.64;100.00
22605;BME280;11469;49.024;8.246;2022-12-08T05:40:29;99930.88;;;0.64;100.00
22605;BME280;11469;49.024;8.246;2022-12-08T05:42:55;99928.34;;;0.68;100.00
22605;BME280;11469;49.024;8.246;2022-12-08T05:45:20;99934.34;;;0.70;100.00
22605;BME280;11469;49.024;8.246;2022-12-08T05:47:46;99928.94;;;0.65;100.00
22605;BME280;11469;49.024;8.246;2022-12-08T05:50:11;99929.25;;;0.63;100.00
22605;BME280;11469;49.024;8.246;2022-12-08T05:52:36;99924.75;;;0.68;100.00
22605;BME280;11469;49.024;8.246;2022-12-08T05:55:02;99921.28;;;0.62;100.00
22605;BME280;11469;49.024;8.246;2022-12-08T05:57:27;99918.41;;;0.67;100.00
22605;BME280;11469;49.024;8.246;2022-12-08T05:59:53;99924.44;;;0.69;100.00
22605;BME280;11469;49.024;8.246;2022-12-08T06:02:18;99917.59;;;0.66;100.00
22605;BME280;11469;49.024;8.246;2022-12-08T06:04:43;99920.97;;;0.63;100.00
22605;BME280;11469;49.024;8.246;2022-12-08T06:07:09;99920.97;;;0.63;100.00
22605;BME280;11469;49.024;8.246;2022-12-08T06:09:34;99922.09;;;0.62;100.00
22605;BME280;11469;49.024;8.246;2022-12-08T06:12:00;99923.13;;;0.66;100.00
22605;BME280;11469;49.024;8.246;2022-12-08T06:14:26;99926.38;;;0.69;100.00
22605;BME280;11469;49.024;8.246;2022-12-08T06:16:52;99923.94;;;0.67;100.00
22605;BME280;11469;49.024;8.246;2022-12-08T06:19:18;99923.94;;;0.67;100.00
22605;BME280;11469;49.024;8.246;2022-12-08T06:21:43;99921.38;;;0.71;100.00
22605;BME280;11469;49.024;8.246;2022-12-08T06:24:09;99921.78;;;0.78;100.00
22605;BME280;11469;49.024;8.246;2022-12-08T06:26:34;99920.66;;;0.79;100.00
22605;BME280;11469;49.024;8.246;2022-12-08T06:29:00;99928.44;;;0.77;100.00
22605;BME280;11469;49.024;8.246;2022-12-08T06:31:26;99924.13;;;0.84;100.00
22605;BME280;11469;49.024;8.246;2022-12-08T06:33:52;99926.28;;;0.87;100.00
22605;BME280;11469;49.024;8.246;2022-12-08T06:36:21;99928.22;;;0.87;100.00
22605;BME280;11469;49.024;8.246;2022-12-08T06:38:48;99924.03;;;0.89;100.00
22605;BME280;11469;49.024;8.246;2022-12-08T06:41:13;99927.59;;;0.90;100.00
22605;BME280;11469;49.024;8.246;2022-12-08T06:43:39;99932.19;;;0.94;100.00
22605;BME280;11469;49.024;8.246;2022-12-08T06:46:07;99935.75;;;0.95;100.00
22605;BME280;11469;49.024;8.246;2022-12-08T06:48:33;99934.00;;;0.99;100.00
22605;BME280;11469;49.024;8.246;2022-12-08T06:51:05;99944.22;;;0.98;100.00
22605;BME280;11469;49.024;8.246;2022-12-08T06:53:31;99932.66;;;0.96;100.00
22605;BME280;11469;49.024;8.246;2022-12-08T06:55:56;99933.69;;;1.00;100.00
22605;BME280;11469;49.024;8.246;2022-12-08T06:58:21;99937.88;;;0.98;100.00
22605;BME280;11469;49.024;8.246;2022-12-08T07:00:47;99931.75;;;1.01;100.00
22605;BME280;11469;49.024;8.246;2022-12-08T07:03:12;99931.13;;;1.04;100.00
22605;BME280;11469;49.024;8.246;2022-12-08T07:05:38;99930.19;;;1.09;100.00
22605;BME280;11469;49.024;8.246;2022-12-08T07:08:06;99936.66;;;1.04;100.00
22605;BME280;11469;49.024;8.246;2022-12-08T07:10:31;99926.44;;;1.05;100.00
22605;BME280;11469;49.024;8.246;2022-12-08T07:12:57;99928.25;;;1.09;100.00
22605;BME280;11469;49.024;8.246;2022-12-08T07:15:22;99931.63;;;1.06;100.00
22605;BME280;11469;49.024;8.246;2022-12-08T07:17:48;99927.25;;;1.05;100.00
22605;BME280;11469;49.024;8.246;2022-12-08T07:20:13;99930.19;;;1.09;100.00
22605;BME280;11469;49.024;8.246;2022-12-08T07:22:39;99929.38;;;1.08;100.00
22605;BME280;11469;49.024;8.246;2022-12-08T07:25:05;99929.69;;;1.07;100.00
22605;BME280;11469;49.024;8.246;2022-12-08T07:27:30;99922.75;;;1.09;100.00
22605;BME280;11469;49.024;8.246;2022-12-08T07:29:55;99925.19;;;1.11;100.00
22605;BME280;11469;49.024;8.246;2022-12-08T07:32:21;99917.41;;;1.13;100.00
22605;BME280;11469;49.024;8.246;2022-12-08T07:34:46;99934.78;;;1.13;100.00
22605;BME280;11469;49.024;8.246;2022-12-08T07:37:12;99932.53;;;1.15;100.00
22605;BME280;11469;49.024;8.246;2022-12-08T07:39:38;99935.50;;;1.19;100.00
22605;BME280;11469;49.024;8.246;2022-12-08T07:42:03;99931.63;;;1.20;100.00
22605;BME280;11469;49.024;8.246;2022-12-08T07:44:28;99927.41;;;1.22;100.00
22605;BME280;11469;49.024;8.246;2022-12-08T07:46:54;99929.03;;;1.23;100.00
22605;BME280;11469;49.024;8.246;2022-12-08T07:49:19;99919.31;;;1.26;100.00
22605;BME280;11469;49.024;8.246;2022-12-08T07:51:45;99912.38;;;1.28;100.00
22605;BME280;11469;49.024;8.246;2022-12-08T07:54:11;99913.50;;;1.27;100.00
22605;BME280;11469;49.024;8.246;2022-12-08T07:56:37;99911.56;;;1.28;100.00
22605;BME280;11469;49.024;8.246;2022-12-08T07:59:02;99915.94;;;1.29;100.00
22605;BME280;11469;49.024;8.246;2022-12-08T08:01:30;99921.16;;;1.30;100.00
22605;BME280;11469;49.024;8.246;2022-12-08T08:03:57;99907.53;;;1.34;100.00
22605;BME280;11469;49.024;8.246;2022-12-08T08:06:25;99912.06;;;1.30;100.00
22605;BME280;11469;49.024;8.246;2022-12-08T08:08:50;99911.13;;;1.35;100.00
22605;BME280;11469;49.024;8.246;2022-12-08T08:11:16;99914.06;;;1.38;100.00
22605;BME280;11469;49.024;8.246;2022-12-08T08:13:41;99916.84;;;1.38;100.00
22605;BME280;11469;49.024;8.246;2022-12-08T08:16:08;99918.97;;;1.41;100.00
22605;BME280;11469;49.024;8.246;2022-12-08T08:18:35;99912.50;;;1.46;100.00
22605;BME280;11469;49.024;8.246;2022-12-08T08:21:01;99919.28;;;1.62;100.00
22605;BME280;11469;49.024;8.246;2022-12-08T08:23:27;99913.44;;;1.63;100.00
22605;BME280;11469;49.024;8.246;2022-12-08T08:25:52;99914.38;;;1.59;100.00
22605;BME280;11469;49.024;8.246;2022-12-08T08:28:18;99914.25;;;1.64;100.00
22605;BME280;11469;49.024;8.246;2022-12-08T08:30:46;99910.81;;;1.58;100.00
22605;BME280;11469;49.024;8.246;2022-12-08T08:33:12;99918.47;;;1.61;100.00
22605;BME280;11469;49.024;8.246;2022-12-08T08:35:38;99914.44;;;1.67;100.00
22605;BME280;11469;49.024;8.246;2022-12-08T08:38:04;99919.84;;;1.73;100.00
22605;BME280;11469;49.024;8.246;2022-12-08T08:40:29;99926.63;;;2.59;100.00
22605;BME280;11469;49.024;8.246;2022-12-08T08:42:54;99919.09;;;2.51;100.00
22605;BME280;11469;49.024;8.246;2022-12-08T08:45:20;99920.84;;;2.39;100.00
22605;BME280;11469;49.024;8.246;2022-12-08T08:47:45;99917.94;;;2.35;100.00
22605;BME280;11469;49.024;8.246;2022-12-08T08:50:11;99922.31;;;2.36;100.00
22605;BME280;11469;49.024;8.246;2022-12-08T08:52:36;99918.38;;;2.28;100.00
22605;BME280;11469;49.024;8.246;2022-12-08T08:55:02;99916.56;;;2.24;100.00
22605;BME280;11469;49.024;8.246;2022-12-08T08:57:27;99916.56;;;2.24;100.00
22605;BME280;11469;49.024;8.246;2022-12-08T08:59:53;99914.94;;;2.23;100.00
22605;BME280;11469;49.024;8.246;2022-12-08T09:02:19;99900.78;;;2.24;100.00
22605;BME280;11469;49.024;8.246;2022-12-08T09:04:45;99903.25;;;2.26;100.00
22605;BME280;11469;49.024;8.246;2022-12-08T09:07:11;99903.25;;;2.26;100.00
22605;BME280;11469;49.024;8.246;2022-12-08T09:09:37;99907.00;;;2.30;100.00
22605;BME280;11469;49.024;8.246;2022-12-08T09:12:03;99898.84;;;2.25;100.00
22605;BME280;11469;49.024;8.246;2022-12-08T09:14:29;99895.44;;;2.28;100.00
22605;BME280;11469;49.024;8.246;2022-12-08T09:16:54;99901.59;;;2.25;100.00
22605;BME280;11469;49.024;8.246;2022-12-08T09:19:20;99894.63;;;2.27;100.00
22605;BME280;11469;49.024;8.246;2022-12-08T09:21:45;99900.03;;;2.32;100.00
22605;BME280;11469;49.024;8.246;2022-12-08T09:24:10;99897.75;;;2.35;100.00
22605;BME280;11469;49.024;8.246;2022-12-08T09:26:41;99891.56;;;2.38;100.00
22605;BME280;11469;49.024;8.246;2022-12-08T09:29:07;99893.38;;;2.42;100.00
22605;BME280;11469;49.024;8.246;2022-12-08T09:31:32;99900.88;;;2.50;100.00
22605;BME280;11469;49.024;8.246;2022-12-08T09:33:58;99900.25;;;2.53;100.00
22605;BME280;11469;49.024;8.246;2022-12-08T09:36:24;99903.97;;;2.49;100.00
22605;BME280;11469;49.024;8.246;2022-12-08T09:38:49;99893.44;;;2.59;100.00
22605;BME280;11469;49.024;8.246;2022-12-08T09:41:22;99893.75;;;2.58;100.00
22605;BME280;11469;49.024;8.246;2022-12-08T09:44:06;99875.69;;;2.60;100.00
22605;BME280;11469;49.024;8.246;2022-12-08T09:46:37;99885.47;;;2.66;100.00
22605;BME280;11469;49.024;8.246;2022-12-08T09:49:03;99877.84;;;2.72;100.00
22605;BME280;11469;49.024;8.246;2022-12-08T09:51:37;99882.59;;;2.80;100.00
22605;BME280;11469;49.024;8.246;2022-12-08T09:54:32;99874.91;;;2.86;100.00
22605;BME280;11469;49.024;8.246;2022-12-08T09:56:59;99872.34;;;2.98;100.00
22605;BME280;11469;49.024;8.246;2022-12-08T09:59:30;99866.31;;;3.05;100.00
22605;BME280;11469;49.024;8.246;2022-12-08T10:01:56;99857.03;;;3.09;100.00
22605;BME280;11469;49.024;8.246;2022-12-08T10:07:14;99851.50;;;3.18;100.00
22605;BME280;11469;49.024;8.246;2022-12-08T10:12:46;99845.97;;;3.18;100.00
22605;BME280;11469;49.024;8.246;2022-12-08T10:18:18;99849.41;;;3.23;100.00
22605;BME280;11469;49.024;8.246;2022-12-08T10:20:45;99847.94;;;3.26;100.00
22605;BME280;11469;49.024;8.246;2022-12-08T10:25:40;99845.66;;;3.28;100.00
22605;BME280;11469;49.024;8.246;2022-12-08T10:28:08;99839.25;;;3.36;100.00
22605;BME280;11469;49.024;8.246;2022-12-08T10:30:34;99840.41;;;3.35;100.00
22605;BME280;11469;49.024;8.246;2022-12-08T10:32:59;99833.72;;;3.36;100.00
22605;BME280;11469;49.024;8.246;2022-12-08T10:35:42;99831.44;;;3.38;99.44
22605;BME280;11469;49.024;8.246;2022-12-08T10:38:16;99825.88;;;3.47;99.69
22605;BME280;11469;49.024;8.246;2022-12-08T10:40:42;99822.78;;;3.57;99.14
22605;BME280;11469;49.024;8.246;2022-12-08T10:43:14;99820.50;;;3.59;99.19
22605;BME280;11469;49.024;8.246;2022-12-08T10:45:41;99821.13;;;3.64;98.50
22605;BME280;11469;49.024;8.246;2022-12-08T10:48:20;99816.19;;;3.79;96.96
22605;BME280;11469;49.024;8.246;2022-12-08T10:53:20;99813.22;;;3.92;95.92
22605;BME280;11469;49.024;8.246;2022-12-08T10:58:23;99800.81;;;3.98;95.15
22605;BME280;11469;49.024;8.246;2022-12-08T11:03:58;99795.44;;;3.93;95.64
22605;BME280;11469;49.024;8.246;2022-12-08T11:06:35;99791.63;;;4.07;95.96
22605;BME280;11469;49.024;8.246;2022-12-08T11:12:05;99801.63;;;3.99;96.60
22605;BME280;11469;49.024;8.246;2022-12-08T11:14:36;99786.63;;;3.91;97.56
22605;BME280;11469;49.024;8.246;2022-12-08T11:17:16;99789.72;;;3.98;97.29
22605;BME280;11469;49.024;8.246;2022-12-08T11:19:45;99778.44;;;4.04;97.30
22605;BME280;11469;49.024;8.246;2022-12-08T11:24:46;99784.94;;;4.08;96.38
22605;BME280;11469;49.024;8.246;2022-12-08T11:27:20;99778.09;;;4.05;95.84
22605;BME280;11469;49.024;8.246;2022-12-08T11:29:45;99782.31;;;4.11;96.09
22605;BME280;11469;49.024;8.246;2022-12-08T11:32:12;99771.69;;;4.13;96.18
22605;BME280;11469;49.024;8.246;2022-12-08T11:34:50;99771.22;;;4.11;95.89
22605;BME280;11469;49.024;8.246;2022-12-08T11:37:28;99773.66;;;4.13;95.35
22605;BME280;11469;49.024;8.246;2022-12-08T11:39:58;99771.19;;;4.20;95.58
22605;BME280;11469;49.024;8.246;2022-12-08T11:42:30;99766.22;;;4.25;95.75
22605;BME280;11469;49.024;8.246;2022-12-08T11:45:02;99762.19;;;4.23;95.79
22605;BME280;11469;49.024;8.246;2022-12-08T11:47:35;99764.28;;;4.26;95.26
22605;BME280;11469;49.024;8.246;2022-12-08T11:50:24;99747.56;;;4.14;91.82
22605;BME280;11469;49.024;8.246;2022-12-08T11:52:52;99764.25;;;4.05;92.02
22605;BME280;11469;49.024;8.246;2022-12-08T11:57:53;99750.97;;;4.19;90.78
22605;BME280;11469;49.024;8.246;2022-12-08T12:00:19;99751.44;;;4.21;89.55
22605;BME280;11469;49.024;8.246;2022-12-08T12:02:48;99748.00;;;4.24;88.78
22605;BME280;11469;49.024;8.246;2022-12-08T12:05:32;99739.44;;;4.29;87.37
22605;BME280;11469;49.024;8.246;2022-12-08T12:18:50;99732.94;;;4.25;90.64
22605;BME280;11469;49.024;8.246;2022-12-08T12:21:36;99726.06;;;4.31;89.11
22605;BME280;11469;49.024;8.246;2022-12-08T12:24:09;99726.72;;;4.28;89.49
22605;BME280;11469;49.024;8.246;2022-12-08T12:29:33;99729.31;;;4.33;89.38
22605;BME280;11469;49.024;8.246;2022-12-08T12:32:00;99732.28;;;4.28;90.54
22605;BME280;11469;49.024;8.246;2022-12-08T12:34:32;99731.53;;;4.19;90.19
22605;BME280;11469;49.024;8.246;2022-12-08T12:37:09;99724.84;;;4.20;89.88
22605;BME280;11469;49.024;8.246;2022-12-08T12:39:57;99725.00;;;4.24;89.03
22605;BME280;11469;49.024;8.246;2022-12-08T12:55:53;99717.69;;;4.19;89.29
22605;BME280;11469;49.024;8.246;2022-12-08T13:03:35;99708.53;;;4.19;90.74
22605;BME280;11469;49.024;8.246;2022-12-08T13:06:01;99706.84;;;4.26;90.59
22605;BME280;11469;49.024;8.246;2022-12-08T13:08:28;99703.25;;;4.26;90.75
22605;BME280;11469;49.024;8.246;2022-12-08T13:13:22;99701.38;;;4.39;89.94
22605;BME280;11469;49.024;8.246;2022-12-08T13:15:51;99694.66;;;4.40;89.44
22605;BME280;11469;49.024;8.246;2022-12-08T13:20:52;99698.19;;;4.49;87.81
22605;BME280;11469;49.024;8.246;2022-12-08T13:29:20;99701.25;;;4.56;87.34
22605;BME280;11469;49.024;8.246;2022-12-08T13:31:52;99691.09;;;4.60;87.14
22605;BME280;11469;49.024;8.246;2022-12-08T13:37:06;99693.34;;;4.66;87.36
22605;BME280;11469;49.024;8.246;2022-12-08T13:47:47;99681.16;;;4.59;88.06
22605;BME280;11469;49.024;8.246;2022-12-08T13:50:25;99677.75;;;4.53;87.92
22605;BME280;11469;49.024;8.246;2022-12-08T13:52:56;99687.09;;;4.49;88.80
22605;BME280;11469;49.024;8.246;2022-12-08T13:55:39;99688.59;;;4.46;88.60
22605;BME280;11469;49.024;8.246;2022-12-08T13:58:15;99689.13;;;4.40;88.23
22605;BME280;11469;49.024;8.246;2022-12-08T14:00:40;99684.25;;;4.37;88.64
22605;BME280;11469;49.024;8.246;2022-12-08T14:03:10;99683.78;;;4.34;88.43
22605;BME280;11469;49.024;8.246;2022-12-08T14:05:40;99684.31;;;4.28;87.00
22605;BME280;11469;49.024;8.246;2022-12-08T14:08:17;99690.66;;;4.28;87.51
22605;BME280;11469;49.024;8.246;2022-12-08T14:10:44;99693.44;;;4.28;86.70
22605;BME280;11469;49.024;8.246;2022-12-08T14:13:12;99683.00;;;4.25;87.03
22605;BME280;11469;49.024;8.246;2022-12-08T14:15:39;99682.00;;;4.30;87.22
22605;BME280;11469;49.024;8.246;2022-12-08T14:18:19;99682.00;;;4.30;87.49
22605;BME280;11469;49.024;8.246;2022-12-08T14:20:58;99681.19;;;4.29;87.14
22605;BME280;11469;49.024;8.246;2022-12-08T14:23:24;99685.44;;;4.27;87.16
22605;BME280;11469;49.024;8.246;2022-12-08T14:25:49;99687.63;;;4.21;87.06
22605;BME280;11469;49.024;8.246;2022-12-08T14:28:15;99682.09;;;4.21;86.86
22605;BME280;11469;49.024;8.246;2022-12-08T14:30:41;99686.81;;;4.21;87.20
22605;BME280;11469;49.024;8.246;2022-12-08T14:33:12;99689.94;;;4.19;87.34
22605;BME280;11469;49.024;8.246;2022-12-08T14:35:38;99686.50;;;4.22;87.32
22605;BME280;11469;49.024;8.246;2022-12-08T14:38:11;99689.94;;;4.19;88.01
22605;BME280;11469;49.024;8.246;2022-12-08T14:40:39;99698.25;;;4.19;88.36
22605;BME280;11469;49.024;8.246;2022-12-08T14:48:25;99691.28;;;4.13;88.77
22605;BME280;11469;49.024;8.246;2022-12-08T14:53:19;99690.13;;;4.14;87.55
22605;BME280;11469;49.024;8.246;2022-12-08T14:55:46;99687.69;;;4.13;88.13